Latest Weather Observations for Brisbane

IDQ60801

Issued at 9:35 pm EST Saturday 19 April 2014 (issued every 30 minutes, with the page automatically refreshed every 10 minutes)

About weather observations | Map of weather stations | Latest weather observations for QLD | Other Formats
Station Details ID: 040913 Name: BRISBANE Lat: -27.48 Lon: 153.04 Height: 8.13 m
Data from the previous 72 hours. | See also: Recent months at Brisbane
Date/Time
EST
Temp
°C
App
Temp
°C
Dew
Point
Rel
Hum
%
Delta-T
°C
Wind Press
QNH
hPa
Press
MSL
hPa
Rain
since 9 am
mm
Dir
 
Spd
km/h
Gust
km/h
Spd
kts
Gust
kts
19/09:30pm 17.9 19.0 13.6 76 2.4 S 0 0 0 0 1016.5 - 0.0
19/09:00pm 18.2 19.3 13.5 74 2.7 E 0 0 0 0 1016.3 1016.3 0.0
19/08:30pm 18.8 19.8 13.2 70 3.2 CALM 0 0 0 0 1016.1 - 0.0
19/08:00pm 19.4 20.4 13.1 67 3.6 CALM 0 2 0 1 1015.9 1015.9 0.0
19/07:30pm 20.6 21.1 12.8 61 4.4 E 2 6 1 3 1015.5 - 0.0
19/07:00pm 21.4 22.0 13.1 59 4.7 ENE 2 4 1 2 1015.1 1015.1 0.0
19/06:30pm 22.3 22.3 13.6 58 5.0 E 6 9 3 5 1014.5 - 0.0
19/06:00pm 23.1 22.7 13.0 53 5.8 E 7 13 4 7 1014.1 1014.1 0.0
19/05:30pm 23.6 23.6 11.0 45 7.0 SE 2 11 1 6 1013.8 - 0.0
19/05:00pm 27.0 26.5 9.4 33 9.7 SSW 2 6 1 3 1013.4 1013.4 0.0
19/04:30pm 27.8 27.1 8.6 30 10.5 S 2 4 1 2 1013.1 - 0.0
19/04:00pm 27.8 27.0 9.6 32 10.1 SW 4 9 2 5 1012.9 1012.9 0.0
19/03:30pm 27.6 26.7 9.4 32 10.1 S 4 7 2 4 1012.9 - 0.0
19/03:00pm 27.6 26.1 9.0 31 10.2 WNW 7 17 4 9 1012.9 1012.9 0.0
19/02:30pm 27.9 26.5 9.7 32 10.1 W 7 13 4 7 1013.1 - 0.0
19/02:00pm 27.7 26.2 8.6 30 10.4 WSW 6 13 3 7 1013.3 1013.3 0.0
19/01:30pm 27.6 25.6 8.5 30 10.4 WSW 9 17 5 9 1013.5 - 0.0
19/01:00pm 27.2 25.2 8.6 31 10.1 WSW 9 20 5 11 1013.8 1013.8 0.0
19/12:30pm 27.1 25.2 9.0 32 9.9 WSW 9 17 5 9 1014.3 - 0.0
19/12:00pm 26.8 24.7 8.3 31 10.0 WSW 9 19 5 10 1014.8 1014.8 0.0
19/11:30am 26.1 24.7 9.5 35 9.1 WSW 7 15 4 8 1015.4 - 0.0
19/11:00am 26.0 25.2 11.0 39 8.4 SSW 6 15 3 8 1016.0 1016.0 0.0
19/10:30am 25.4 24.8 11.6 42 7.8 SSW 6 13 3 7 1016.3 - 0.0
19/10:00am 24.7 24.4 12.6 47 7.0 WSW 6 9 3 5 1016.6 1016.6 0.0
19/09:30am 23.1 22.3 11.8 49 6.4 WSW 7 15 4 8 1016.8 - 0.0
19/09:00am 22.0 21.1 11.4 51 5.9 WSW 7 15 4 8 1016.9 1016.9 0.0
19/08:30am 21.1 20.9 13.0 60 4.6 SW 6 13 3 7 1017.0 - 0.0
19/08:00am 19.2 18.7 12.0 63 4.0 SW 6 11 3 6 1016.8 1016.8 0.0
19/07:30am 17.9 17.7 11.9 68 3.3 SW 4 11 2 6 1016.5 - 0.0
19/07:00am 16.7 16.9 12.0 74 2.6 SW 2 9 1 5 1016.4 1016.4 0.0
19/06:30am 15.0 15.6 11.8 81 1.7 CALM 0 2 0 1 1016.3 - 0.0
19/06:00am 14.6 15.1 11.6 82 1.6 CALM 0 2 0 1 1016.1 1016.1 0.0
19/05:30am 15.6 15.5 12.2 80 1.9 W 4 6 2 3 1015.9 - 0.0
19/05:00am 16.0 16.0 12.4 79 2.0 WSW 4 9 2 5 1015.7 1015.7 0.0
19/04:30am 15.4 15.7 12.3 82 1.7 SW 2 9 1 5 1015.4 - 0.0
19/04:00am 16.0 16.6 13.1 83 1.6 W 2 4 1 2 1015.4 1015.4 0.0
19/03:30am 16.4 16.9 13.9 85 1.4 WSW 4 7 2 4 1015.2 - 0.0
19/03:00am 16.2 16.9 13.5 84 1.5 SSW 2 7 1 4 1015.4 1015.4 0.0
19/02:30am 17.0 17.6 14.3 84 1.5 SSW 4 9 2 5 1015.5 - 0.0
19/02:00am 17.3 17.5 14.2 82 1.8 SW 6 11 3 6 1015.5 1015.5 0.0
19/01:30am 17.9 18.6 15.5 86 1.4 SW 6 9 3 5 1015.6 - 0.0
19/01:00am 17.8 19.4 16.8 94 0.6 SW 4 7 2 4 1015.7 1015.7 0.0
19/12:30am 17.2 19.2 15.9 92 0.8 CALM 0 0 0 0 1015.7 - 0.0
19/12:00am 17.7 19.7 16.0 90 1.0 E 0 0 0 0 1015.7 1015.7 0.0
 
Date/Time
EST
Temp
°C
App
Temp
°C
Dew
Point
Rel
Hum
%
Delta-T
°C
Wind Press
QNH
hPa
Press
MSL
hPa
Rain
since 9 am
mm
Dir
 
Spd
km/h
Gust
km/h
Spd
kts
Gust
kts
18/11:30pm 18.3 20.3 15.9 86 1.4 CALM 0 0 0 0 1015.6 - 0.0
18/11:00pm 19.5 21.0 16.7 84 1.7 ENE 4 7 2 4 1015.9 1015.9 0.0
18/10:30pm 19.7 21.8 16.3 81 2.0 CALM 0 0 0 0 1015.9 - 0.0
18/10:00pm 20.7 22.7 16.9 79 2.3 NNE 2 6 1 3 1016.1 1016.1 0.0
18/09:30pm 21.1 23.2 17.3 79 2.3 N 2 7 1 4 1016.1 - 0.0
18/09:00pm 21.2 22.9 17.2 78 2.4 NNE 4 6 2 3 1015.9 1015.9 0.0
18/08:30pm 21.2 22.8 17.0 77 2.6 N 4 7 2 4 1015.7 - 0.0
18/08:00pm 21.6 23.9 17.6 78 2.5 NNE 2 6 1 3 1015.6 1015.6 0.0
18/07:30pm 21.8 24.1 17.6 77 2.6 NE 2 4 1 2 1015.2 - 0.0
18/07:00pm 22.1 24.0 17.7 76 2.7 NE 4 7 2 4 1014.8 1014.8 0.0
18/06:30pm 22.4 24.2 17.3 73 3.1 NE 4 13 2 7 1014.3 - 0.0
18/06:00pm 22.9 24.1 16.9 69 3.7 NNE 6 13 3 7 1014.1 1014.1 0.0
18/05:30pm 23.6 24.2 15.9 62 4.7 NNE 7 15 4 8 1013.8 - 0.0
18/05:00pm 25.1 25.4 14.6 52 6.3 NNE 6 13 3 7 1013.5 1013.5 0.0
18/04:30pm 27.1 26.8 11.6 38 8.9 WNW 4 11 2 6 1013.2 - 0.0
18/04:00pm 27.4 27.2 11.8 38 9.0 WSW 4 7 2 4 1013.1 1013.1 0.0
18/03:30pm 27.4 26.9 12.2 39 8.8 SSW 6 9 3 5 1013.0 - 0.0
18/03:00pm 27.8 27.3 12.6 39 8.9 W 7 17 4 9 1013.0 1013.0 0.0
18/02:30pm 27.8 26.8 10.9 35 9.6 W 7 15 4 8 1013.2 - 0.0
18/02:00pm 27.7 26.4 10.0 33 9.9 W 7 17 4 9 1013.2 1013.2 0.0
18/01:30pm 27.6 26.8 11.6 37 9.2 SW 7 19 4 10 1013.5 - 0.0
18/01:00pm 26.8 26.0 11.7 39 8.6 WNW 7 19 4 10 1013.8 1013.8 0.0
18/12:30pm 26.7 27.4 14.5 47 7.3 SW 4 9 2 5 1014.3 - 0.0
18/12:00pm 26.7 27.9 16.0 52 6.6 WNW 4 9 2 5 1014.9 1014.9 0.0
18/11:30am 25.5 26.6 15.5 54 6.1 N 4 9 2 5 1015.6 - 0.0
18/11:00am 24.9 26.0 15.5 56 5.7 W 4 11 2 6 1016.2 1016.2 0.0
18/10:30am 24.7 25.5 15.9 58 5.3 N 6 11 3 6 1016.6 - 0.0
18/10:00am 24.3 26.0 16.3 61 4.9 SSE 2 6 1 3 1016.8 1016.8 0.0
18/09:30am 23.4 24.7 16.2 64 4.4 S 4 7 2 4 1017.0 - 0.0
18/09:00am 21.9 22.8 16.0 69 3.5 W 6 9 3 5 1017.4 1017.4 0.0
18/08:30am 20.9 21.7 15.9 73 3.0 SW 6 9 3 5 1017.4 - 0.0
18/08:00am 19.7 20.9 15.8 78 2.3 SW 4 7 2 4 1017.5 1017.5 0.0
18/07:30am 18.6 19.7 15.5 82 1.8 WSW 4 9 2 5 1017.3 - 0.0
18/07:00am 17.7 19.6 15.7 88 1.2 CALM 0 4 0 2 1017.1 1017.1 0.0
18/06:30am 17.1 18.1 15.4 90 1.0 WSW 4 6 2 3 1016.8 - 0.0
18/06:00am 16.8 18.1 15.2 90 0.9 WSW 2 4 1 2 1016.6 1016.6 0.0
18/05:30am 16.8 18.0 14.8 88 1.2 SSW 2 6 1 3 1016.4 - 0.0
18/05:00am 16.7 18.1 14.3 86 1.4 CALM 0 0 0 0 1016.3 1016.3 0.0
18/04:30am 17.5 18.8 14.2 81 1.9 CALM 0 2 0 1 1016.4 - 0.0
18/04:00am 18.4 19.3 15.1 81 1.9 WSW 4 6 2 3 1016.4 1016.4 0.0
18/03:30am 18.0 19.8 15.4 85 1.5 CALM 0 4 0 2 1016.3 - 0.0
18/03:00am 18.0 19.4 15.3 84 1.6 WSW 2 4 1 2 1016.4 1016.4 0.0
18/02:30am 17.6 19.5 15.8 89 1.1 CALM 0 2 0 1 1016.4 - 0.0
18/02:00am 17.0 18.7 15.2 89 1.0 CALM 0 0 0 0 1016.4 1016.4 0.0
18/01:30am 17.2 18.7 14.7 85 1.4 CALM 0 0 0 0 1016.7 - 0.0
18/01:00am 17.7 19.3 15.0 84 1.6 CALM 0 0 0 0 1016.9 1016.9 0.0
18/12:30am 18.1 19.7 14.8 81 1.9 CALM 0 0 0 0 1017.0 - 0.0
18/12:00am 18.6 20.5 15.7 83 1.7 CALM 0 0 0 0 1017.3 1017.3 0.0
 
Date/Time
EST
Temp
°C
App
Temp
°C
Dew
Point
Rel
Hum
%
Delta-T
°C
Wind Press
QNH
hPa
Press
MSL
hPa
Rain
since 9 am
mm
Dir
 
Spd
km/h
Gust
km/h
Spd
kts
Gust
kts
17/11:30pm 18.4 20.1 15.3 82 1.8 CALM 0 0 0 0 1017.5 - 0.0
17/11:00pm 18.9 20.6 15.2 79 2.2 CALM 0 0 0 0 1017.5 1017.5 0.0
17/10:30pm 18.7 20.4 15.2 80 2.1 CALM 0 0 0 0 1017.6 - 0.0
17/10:00pm 18.7 20.4 15.2 80 2.0 CALM 0 0 0 0 1017.6 1017.6 0.0
17/09:30pm 19.3 21.1 15.6 79 2.2 CALM 0 0 0 0 1017.5 - 0.0
17/09:00pm 19.1 20.8 15.2 78 2.3 CALM 0 0 0 0 1017.4 1017.4 0.0
17/08:30pm 19.2 20.6 14.5 74 2.7 CALM 0 0 0 0 1017.1 - 0.0
17/08:00pm 19.9 21.4 14.7 72 3.0 CALM 0 0 0 0 1016.9 1016.9 0.0
17/07:30pm 20.7 22.2 14.6 68 3.6 CALM 0 2 0 1 1016.8 - 0.0
17/07:00pm 21.3 22.4 14.7 66 3.9 NE 2 6 1 3 1016.3 1016.3 0.0
17/06:30pm 22.1 22.6 15.0 64 4.2 E 6 7 3 4 1015.9 - 0.0
17/06:00pm 22.5 23.2 14.6 61 4.7 NE 4 9 2 5 1015.7 1015.7 0.0
17/05:30pm 23.1 23.2 14.4 58 5.1 ENE 7 17 4 9 1015.4 - 0.0
17/05:00pm 23.9 23.4 13.7 53 6.0 E 9 17 5 9 1015.1 1015.1 0.0
17/04:30pm 24.6 24.2 14.1 52 6.2 ENE 9 13 5 7 1014.6 - 0.0
17/04:00pm 25.4 25.2 13.6 48 6.9 ENE 7 15 4 8 1014.4 1014.4 0.0
17/03:30pm 26.6 26.4 13.7 45 7.6 E 7 13 4 7 1014.3 - 0.0
17/03:00pm 27.7 27.2 12.5 39 8.9 WNW 7 15 4 8 1014.2 1014.2 0.0
17/02:30pm 27.7 27.1 11.7 37 9.2 WSW 6 9 3 5 1014.5 - 0.0
17/02:00pm 27.2 26.6 11.7 38 8.9 W 6 11 3 6 1014.8 1014.8 0.0
17/01:30pm 26.6 25.7 11.5 39 8.6 SW 7 17 4 9 1015.2 - 0.0
17/01:00pm 26.6 26.2 12.3 41 8.3 SW 6 13 3 7 1015.6 1015.6 0.0
17/12:30pm 26.4 26.0 12.5 42 8.0 W 6 11 3 6 1016.0 - 0.0
17/12:00pm 26.0 26.2 13.2 45 7.5 SW 4 7 2 4 1016.5 1016.5 0.0
17/11:30am 25.4 24.9 12.6 45 7.4 WSW 7 15 4 8 1017.0 - 0.0
17/11:00am 24.8 24.6 13.0 47 6.8 W 6 9 3 5 1017.6 1017.6 0.0
17/10:30am 24.4 24.3 13.3 50 6.5 SSW 6 11 3 6 1018.0 - 0.0
17/10:00am 23.3 22.9 12.3 50 6.2 SSW 6 9 3 5 1018.3 1018.3 0.0
17/09:30am 22.8 22.7 13.3 55 5.5 SSW 6 11 3 6 1018.4 - 0.0
17/09:00am 21.9 21.7 13.5 59 4.8 WSW 7 15 4 8 1018.4 1018.4 0.0
17/08:30am 21.1 21.0 14.0 64 4.1 WSW 7 17 4 9 1018.4 - 0.0
17/08:00am 20.1 20.4 14.5 70 3.3 SW 6 11 3 6 1018.3 1018.3 0.0
17/07:30am 18.7 19.4 14.6 77 2.4 WSW 4 6 2 3 1018.1 - 0.0
17/07:00am 17.6 18.7 14.7 83 1.7 WSW 2 6 1 3 1017.8 1017.8 0.0
17/06:30am 16.7 17.4 14.5 87 1.3 SW 4 9 2 5 1017.4 - 0.0
17/06:00am 16.4 17.0 14.2 87 1.2 SW 4 7 2 4 1017.2 1017.2 0.0
17/05:30am 16.9 17.9 14.4 85 1.4 SSW 2 6 1 3 1017.0 - 0.0
17/05:00am 16.9 17.6 14.4 85 1.4 SW 4 6 2 3 1016.7 1016.7 0.0
17/04:30am 17.0 17.7 14.6 86 1.4 SW 4 6 2 3 1016.5 - 0.0
17/04:00am 17.4 18.2 14.9 85 1.4 WSW 4 9 2 5 1016.3 1016.3 0.0
17/03:30am 17.3 18.2 15.1 87 1.3 WSW 4 7 2 4 1016.1 - 0.0
17/03:00am 17.2 18.1 15.2 88 1.2 SSW 4 9 2 5 1016.1 1016.1 0.0
17/02:30am 17.2 18.2 15.4 89 1.1 WSW 4 6 2 3 1016.1 - 0.0
17/02:00am 16.5 18.1 14.9 90 0.9 CALM 0 0 0 0 1016.2 1016.2 0.0
17/01:30am 17.1 18.6 14.7 86 1.4 CALM 0 0 0 0 1016.5 - 0.0
17/01:00am 17.8 19.3 15.6 87 1.3 WSW 2 6 1 3 1016.6 1016.6 0.0
17/12:30am 16.6 17.9 14.2 86 1.4 CALM 0 0 0 0 1016.5 - 0.0
17/12:00am 16.7 17.9 13.8 83 1.6 CALM 0 0 0 0 1016.5 1016.5 0.0
 
Date/Time
EST
Temp
°C
App
Temp
°C
Dew
Point
Rel
Hum
%
Delta-T
°C
Wind Press
QNH
hPa
Press
MSL
hPa
Rain
since 9 am
mm
Dir
 
Spd
km/h
Gust
km/h
Spd
kts
Gust
kts
16/11:30pm 17.2 18.5 14.1 82 1.8 CALM 0 0 0 0 1016.5 - 0.0
16/11:00pm 18.0 19.3 14.1 78 2.2 CALM 0 0 0 0 1016.6 1016.6 0.0
16/10:30pm 18.4 19.8 14.5 78 2.3 CALM 0 4 0 2 1016.7 - 0.0
16/10:00pm 18.5 20.1 14.8 79 2.1 CALM 0 0 0 0 1016.9 1016.9 0.0

Other Formats:

Comma delimited format used in spreadsheet applications
http://www.bom.gov.au/fwo/IDQ60801/IDQ60801.94576.axf

JavaScript Object Notation format (JSON) in row-major order
http://www.bom.gov.au/fwo/IDQ60801/IDQ60801.94576.json